Redcliff, Canada
Current Conditions -  °F | °C
As of 5:45 AM on Wednesday 26 Nov 2014 (Local Time) from CYXH Reporting Station
Light Snow Light Snow  
Wind Chill: 23°   Ceiling: 5500
Heat Index: 23°   Visibility: 15mi
Dew Point: 21°   Wind: 3mph
Humidity: 93%   Direction: 90°E
Pressure: 30.2"   Gusts: NA
Location:  50.08°N, 110.79°W
Report Text: CYXH 261245Z 09003KT 15SM -SN OVC055 M05/M06 A3020 RMK SC8 SLP264
Loading
Personal Weather Stations






























Interactive Weather Map New forecast layout! Learn more

10-Day Weather Forecast

Advertisements
Track Severe Weather on mobile